Rockwell, NC (28138)

03:46 EDT le 05 juillet 2015 (GMT -0400)
RockGrove | | Change Station
CLOSE
Current Station
Stations météorologiques personnelles
Location: Salisbury, NC
Altitude: 856 ft
Stations météo à proximité

Alt. 856 ft 35.55 °N, 80.48 °W | Updated 12 minutes ago

Partiellement nuageux
Partiellement nuageux
69.8 ° F
Paraît 69.8 ° F
N
0.0
Vent Variable Vent de OSO
Gusts 0.0 mph

Aujourd'hui
Haut(e) -- | Bas -- ° F
--% Risque de précip.
Hier
Haut(e) -- | Bas -- ° F
Precip. -- pouce
6:11 AM 8:40 PM
Lune gibbeuse décroissante, 87% visible
Pression 30.08 pouce
Visibilité 4.0 Miles terrestres
Nuages Nuages épars 12000 ft
Point de rosée 68 ° F
Humidité 93%
Précipitations 0.00 pouce
Profondeur de la couche neigeuse Non disponible.
UV 0 sur 12
Pollen 2.80 sur 12
Qualité de l'air Non disponible.
Flu Activity Non disponible.
METAR KRUQ 050735Z AUTO 00000KT 4SM BR SCT120 20/20 A3008 RMK AO2 T02030203

More Conditions Fewer Conditions

Pression 30.08 pouce
Visibilité 4.0 Miles terrestres
Nuages Nuages épars 12000 ft
Point de rosée 68 ° F
Humidité 93%
Précipitations 0.00 pouce
Profondeur de la couche neigeuse Non disponible.
UV 0 sur 12
Pollen 2.80 sur 12
Qualité de l'air Non disponible.
Flu Activity Non disponible.
METAR KRUQ 050735Z AUTO 00000KT 4SM BR SCT120 20/20 A3008 RMK AO2 T02030203

More Conditions Fewer Conditions

10-Day Weather Forecast

×

Almanac

Astronomie

Jul. 05, 2015 Lever Coucher
Temps réel
Crépuscule civil
Crépuscule nautique
Crépuscule astronomique
Lune
Durée de lumière visible
Longueur du jour
Tomorrow will be .
, % of the Moon is Illuminated

Extrêmes aujourd'hui

State Highs State Lows

Community

WunderPhotos

Upload Photos

1,835,215 Photos téléchargées !

WunderBlogs® & News

Nearby

Qualité de l'air

  Qualité de l'air Indice de la qualité de l'air Polluant
Not available.

Épaisseur de neige

Station Depth Altitude

Activité sismique

Ville Distance Mag. Time & Date
Minimum magnitude displayed is 2.5.

Températures des eaux côtières

Lieu Température

Stations

Stations météo à proximité

Emplacement de la station Température Refroidissement éolien Point de rosée Humidité Vent Precip. Alt. Mise à jour Type